createdAt,value
2023-05-29T00:02:02.208Z,71.33
2023-05-29T00:07:07.606Z,71.53
2023-05-29T00:13:27.835Z,72.28
2023-05-29T00:23:30.413Z,73.13
2023-05-29T00:27:50.606Z,73.33
2023-05-29T00:29:23.541Z,73.13
2023-05-29T00:30:52.473Z,73.02
2023-05-29T00:33:31.689Z,72.92
2023-05-29T00:35:42.553Z,73.02
2023-05-29T00:39:18.240Z,72.92
2023-05-29T00:41:06.961Z,73.13
2023-05-29T00:43:14.090Z,73.13
2023-05-29T00:44:44.489Z,73.33
2023-05-29T00:47:25.867Z,73.43
2023-05-29T00:55:17.302Z,73.77
2023-05-29T00:57:08.007Z,73.57
2023-05-29T00:58:37.345Z,73.57
2023-05-29T01:00:09.166Z,73.54
2023-05-29T01:02:47.338Z,73.23
2023-05-29T01:05:09.176Z,73.47
2023-05-29T01:07:30.272Z,73.36
2023-05-29T01:11:35.869Z,73.67
2023-05-29T01:13:05.734Z,73.88
2023-05-29T01:14:36.448Z,73.77
2023-05-29T01:16:44.027Z,73.88
2023-05-29T01:19:09.703Z,73.88
2023-05-29T01:20:41.928Z,74.32
2023-05-29T01:26:09.335Z,74.62
2023-05-29T01:31:40.447Z,74.73
2023-05-29T01:38:52.720Z,74.62
2023-05-29T01:42:10.794Z,74.93
2023-05-29T01:44:11.983Z,75.03
2023-05-29T01:47:20.833Z,75.03
2023-05-29T01:53:01.916Z,75.48
2023-05-29T01:55:04.093Z,75.48
2023-05-29T02:00:53.406Z,75.78
2023-05-29T02:02:24.788Z,75.98
2023-05-29T02:03:54.927Z,76.19
2023-05-29T02:06:11.438Z,76.09
2023-05-29T02:08:05.174Z,76.09
2023-05-29T02:12:47.281Z,76.32
2023-05-29T02:14:54.693Z,76.63
2023-05-29T02:21:28.512Z,76.84
2023-05-29T02:23:20.417Z,76.84
2023-05-29T02:24:53.712Z,76.73
2023-05-29T02:28:28.595Z,77.08
2023-05-29T02:30:28.406Z,77.18
2023-05-29T02:32:26.253Z,77.38
2023-05-29T02:35:14.180Z,77.28
2023-05-29T02:37:02.787Z,77.28
2023-05-29T02:40:51.133Z,77.18
2023-05-29T02:44:16.953Z,76.97
2023-05-29T02:47:41.476Z,76.87
2023-05-29T02:50:23.676Z,76.97
2023-05-29T02:53:51.467Z,76.97
2023-05-29T02:56:12.541Z,76.87
2023-05-29T02:57:42.974Z,76.87
2023-05-29T02:59:46.910Z,76.97
2023-05-29T03:01:13.989Z,76.87
2023-05-29T03:02:42.939Z,76.77
2023-05-29T03:07:49.001Z,77.11
2023-05-29T03:09:17.254Z,77.22
2023-05-29T03:12:20.450Z,77.42
2023-05-29T03:13:53.378Z,77.62
2023-05-29T03:17:03.869Z,77.83
2023-05-29T03:18:32.900Z,77.62
2023-05-29T03:20:02.937Z,77.62
2023-05-29T03:21:32.453Z,77.62
2023-05-29T03:23:33.850Z,77.62
2023-05-29T03:28:03.351Z,77.76
2023-05-29T03:30:06.213Z,77.66
2023-05-29T03:33:29.604Z,77.56
2023-05-29T03:35:03.344Z,77.76
2023-05-29T03:39:02.848Z,77.66
2023-05-29T03:40:43.911Z,77.56
2023-05-29T03:43:33.034Z,77.76
2023-05-29T03:46:12.247Z,77.76
2023-05-29T03:51:07.782Z,77.66
2023-05-29T03:55:27.615Z,77.45
2023-05-29T03:57:17.634Z,77.45
2023-05-29T03:59:34.091Z,77.56
2023-05-29T04:03:12.869Z,77.35
2023-05-29T04:07:01.341Z,77.35
2023-05-29T04:10:59.677Z,77.25
2023-05-29T04:14:29.370Z,77.25
2023-05-29T04:17:17.872Z,77.25
2023-05-29T04:18:51.371Z,77.35
2023-05-29T04:20:50.625Z,77.35
2023-05-29T04:22:40.106Z,77.04
2023-05-29T04:24:10.503Z,77.04
2023-05-29T04:25:17.281Z,77.15
2023-05-29T04:30:41.553Z,76.81
2023-05-29T04:33:10.663Z,76.60
2023-05-29T04:36:01.281Z,76.19
2023-05-29T04:37:29.552Z,76.29
2023-05-29T04:41:32.556Z,76.19
2023-05-29T04:44:33.680Z,75.89
2023-05-29T04:48:00.899Z,75.89
2023-05-29T04:53:29.191Z,75.75
2023-05-29T04:56:08.646Z,75.24
2023-05-29T05:00:12.841Z,75.04
2023-05-29T05:03:54.364Z,74.83
2023-05-29T05:08:08.680Z,74.73
2023-05-29T05:10:38.030Z,74.52
2023-05-29T05:13:39.597Z,74.38
2023-05-29T05:15:09.188Z,74.29
2023-05-29T05:16:40.126Z,73.98
2023-05-29T05:18:42.109Z,73.98
2023-05-29T05:22:45.511Z,73.36
2023-05-29T05:24:35.377Z,72.96
2023-05-29T05:28:21.689Z,72.92
2023-05-29T05:30:14.145Z,72.82
2023-05-29T05:31:43.786Z,72.72
2023-05-29T05:34:02.731Z,72.41
2023-05-29T05:36:55.831Z,72.21
2023-05-29T05:39:39.315Z,72.28
2023-05-29T05:41:57.693Z,71.67
2023-05-29T05:45:09.156Z,71.56
2023-05-29T05:51:07.428Z,70.72
2023-05-29T05:52:44.847Z,70.41
2023-05-29T06:00:33.434Z,69.49
2023-05-29T06:02:09.442Z,69.67
2023-05-29T06:05:28.186Z,69.36
2023-05-29T06:08:01.133Z,68.75
2023-05-29T06:12:56.274Z,67.93
2023-05-29T06:20:14.388Z,67.19
2023-05-29T06:24:23.968Z,67.60
2023-05-29T06:26:46.595Z,67.57
2023-05-29T06:30:28.113Z,66.44
2023-05-29T06:32:57.592Z,66.75
2023-05-29T06:37:23.711Z,65.50
2023-05-29T06:38:51.778Z,65.91
2023-05-29T06:40:41.061Z,66.18
2023-05-29T06:42:30.341Z,65.77
2023-05-29T06:46:45.858Z,65.16
2023-05-29T06:50:07.182Z,65.26
2023-05-29T06:53:06.970Z,65.23
2023-05-29T06:56:44.592Z,64.83
2023-05-29T07:00:06.648Z,65.33
2023-05-29T07:02:38.784Z,64.70
2023-05-29T07:06:15.019Z,64.79
2023-05-29T07:10:01.860Z,64.29
2023-05-29T07:16:25.747Z,63.24
2023-05-29T07:17:55.188Z,63.42
2023-05-29T07:19:24.640Z,63.21
2023-05-29T07:22:40.388Z,62.40
2023-05-29T07:24:34.364Z,62.20
2023-05-29T07:26:56.685Z,62.17
2023-05-29T07:27:35.615Z,62.07
2023-05-29T07:28:35.919Z,62.07
2023-05-29T07:32:35.859Z,62.37
2023-05-29T07:35:41.750Z,61.87
2023-05-29T07:38:46.878Z,61.56
2023-05-29T07:43:22.500Z,61.36
2023-05-29T07:49:25.699Z,60.69
2023-05-29T07:50:53.428Z,60.28
2023-05-29T07:53:16.121Z,59.78
2023-05-29T07:55:03.465Z,59.58
2023-05-29T07:57:03.623Z,59.48
2023-05-29T07:58:52.614Z,59.27
2023-05-29T08:00:44.190Z,59.45
2023-05-29T08:02:33.436Z,58.34
2023-05-29T08:04:35.897Z,58.87
2023-05-29T08:06:05.262Z,58.94
2023-05-29T08:07:41.126Z,58.54
2023-05-29T08:12:02.016Z,58.44
2023-05-29T08:19:12.916Z,57.50
2023-05-29T08:20:43.198Z,57.70
2023-05-29T08:23:23.039Z,56.76
2023-05-29T08:25:52.035Z,56.36
2023-05-29T08:28:28.473Z,56.63
2023-05-29T08:33:14.329Z,56.76
2023-05-29T08:36:18.327Z,56.73
2023-05-29T08:39:20.536Z,56.02
2023-05-29T08:42:54.541Z,54.99
2023-05-29T08:45:33.932Z,55.40
2023-05-29T08:47:08.550Z,55.27
2023-05-29T08:48:36.570Z,55.36
2023-05-29T08:52:15.683Z,55.67
2023-05-29T08:54:24.212Z,55.14
2023-05-29T09:01:40.981Z,54.51
2023-05-29T09:03:33.477Z,54.51
2023-05-29T09:13:23.350Z,53.88
2023-05-29T09:14:52.215Z,53.58
2023-05-29T09:18:37.446Z,53.96
2023-05-29T09:28:49.170Z,53.40
2023-05-29T09:30:25.757Z,51.68
2023-05-29T09:32:50.122Z,51.38
2023-05-29T09:37:22.708Z,52.51
2023-05-29T09:41:50.163Z,51.46
2023-05-29T09:44:45.912Z,51.54
2023-05-29T09:47:40.935Z,50.51
2023-05-29T09:49:42.476Z,50.51
2023-05-29T09:52:46.032Z,51.41
2023-05-29T09:55:23.134Z,51.89
2023-05-29T10:00:20.696Z,49.68
2023-05-29T10:04:04.714Z,49.35
2023-05-29T10:08:33.119Z,50.43
2023-05-29T10:10:05.533Z,49.43
2023-05-29T10:13:17.516Z,48.50
2023-05-29T10:15:18.718Z,48.48
2023-05-29T10:18:27.784Z,49.28
2023-05-29T10:20:39.479Z,47.27
2023-05-29T10:21:48.230Z,47.88
2023-05-29T10:24:11.331Z,47.17
2023-05-29T10:32:03.599Z,48.18
2023-05-29T10:33:32.084Z,46.37
2023-05-29T10:35:33.504Z,46.45
2023-05-29T10:37:26.002Z,46.45
2023-05-29T10:40:39.607Z,45.06
2023-05-29T10:42:32.185Z,44.96
2023-05-29T10:44:32.868Z,45.84
2023-05-29T10:48:28.185Z,44.74
2023-05-29T10:50:44.697Z,44.64
2023-05-29T10:53:05.874Z,44.62
2023-05-29T10:59:32.257Z,45.40
2023-05-29T11:04:37.969Z,42.68
2023-05-29T11:07:24.559Z,42.76
2023-05-29T11:08:53.425Z,42.05
2023-05-29T11:13:16.655Z,41.21
2023-05-29T11:15:31.803Z,40.52
2023-05-29T11:21:50.840Z,40.53
2023-05-29T11:23:58.875Z,43.33
2023-05-29T11:26:34.575Z,40.52
2023-05-29T11:31:08.572Z,41.61
2023-05-29T11:36:59.712Z,41.19
2023-05-29T11:38:47.716Z,40.88
2023-05-29T11:41:42.905Z,39.87
2023-05-29T11:48:41.765Z,38.40
2023-05-29T11:52:47.262Z,39.69
2023-05-29T11:55:28.611Z,39.28
2023-05-29T11:57:33.662Z,39.18
2023-05-29T11:59:02.761Z,38.76
2023-05-29T12:00:32.255Z,39.06
2023-05-29T12:03:02.031Z,38.76
2023-05-29T12:05:08.340Z,40.16
2023-05-29T12:07:24.451Z,38.66
2023-05-29T12:10:07.638Z,39.37
2023-05-29T12:14:39.697Z,37.46
2023-05-29T12:16:09.565Z,38.57
2023-05-29T12:19:46.130Z,38.46
2023-05-29T12:23:26.382Z,38.46
2023-05-29T12:26:33.422Z,37.72
2023-05-29T12:28:25.623Z,37.10
2023-05-29T12:30:42.273Z,36.79
2023-05-29T12:33:08.870Z,35.19
2023-05-29T12:37:37.213Z,36.87
2023-05-29T12:43:11.063Z,37.55
2023-05-29T12:47:01.053Z,38.45
2023-05-29T12:52:38.267Z,37.12
2023-05-29T12:54:28.988Z,36.70
2023-05-29T12:57:38.862Z,36.21
2023-05-29T12:59:43.746Z,36.52
2023-05-29T13:02:23.148Z,39.21
2023-05-29T13:04:25.876Z,36.70
2023-05-29T13:09:43.992Z,36.14
2023-05-29T13:15:31.641Z,35.92
2023-05-29T13:16:45.099Z,35.52
2023-05-29T13:20:13.581Z,36.24
2023-05-29T13:22:54.740Z,34.84
2023-05-29T13:24:24.628Z,35.34
2023-05-29T13:28:39.788Z,35.71
2023-05-29T13:36:17.642Z,33.97
2023-05-29T13:38:07.577Z,34.46
2023-05-29T13:46:09.215Z,32.39
2023-05-29T13:51:02.106Z,32.99
2023-05-29T13:52:53.536Z,33.17
2023-05-29T13:57:04.203Z,33.36
2023-05-29T14:00:01.847Z,32.79
2023-05-29T14:05:34.578Z,34.10
2023-05-29T14:08:28.823Z,35.29
2023-05-29T14:12:51.384Z,35.17
2023-05-29T14:17:17.003Z,35.59
2023-05-29T14:19:38.160Z,34.99
2023-05-29T14:21:25.101Z,34.89
2023-05-29T14:28:27.959Z,35.08
2023-05-29T14:31:21.183Z,34.80
2023-05-29T14:32:54.735Z,34.80
2023-05-29T14:34:19.943Z,34.81
2023-05-29T14:37:03.552Z,35.01
2023-05-29T14:38:32.438Z,35.11
2023-05-29T14:42:41.628Z,35.21
2023-05-29T14:44:31.253Z,34.89
2023-05-29T15:00:21.928Z,33.12
2023-05-29T15:03:03.038Z,33.12
2023-05-29T15:06:22.923Z,33.40
2023-05-29T15:10:26.714Z,32.82
2023-05-29T15:14:44.535Z,32.84
2023-05-29T15:17:01.739Z,33.04
2023-05-29T15:18:59.475Z,33.45
2023-05-29T15:28:19.901Z,35.13
2023-05-29T15:42:50.392Z,34.38
2023-05-29T15:46:07.532Z,34.28
2023-05-29T15:47:30.896Z,34.48
2023-05-29T15:49:30.084Z,34.16
2023-05-29T15:52:50.971Z,35.06
2023-05-29T15:56:53.914Z,36.19
2023-05-29T16:00:17.163Z,36.49
2023-05-29T16:03:07.845Z,36.79
2023-05-29T16:07:24.818Z,36.89
2023-05-29T16:13:14.261Z,33.51
2023-05-29T16:19:24.283Z,34.84
2023-05-29T16:21:26.653Z,34.75
2023-05-29T16:32:15.828Z,35.24
2023-05-29T16:33:44.005Z,35.35
2023-05-29T16:38:13.336Z,35.64
2023-05-29T16:43:18.110Z,35.05
2023-05-29T16:50:05.821Z,36.15
2023-05-29T16:54:29.108Z,34.08
2023-05-29T16:57:06.782Z,34.80
2023-05-29T16:58:38.776Z,35.31
2023-05-29T17:00:08.688Z,36.01
2023-05-29T17:02:14.596Z,36.21
2023-05-29T17:05:32.733Z,35.83
2023-05-29T17:08:14.385Z,36.31
2023-05-29T17:11:37.483Z,35.51
2023-05-29T17:15:23.869Z,37.61
2023-05-29T17:23:00.675Z,38.53
2023-05-29T17:24:49.332Z,38.75
2023-05-29T17:26:19.238Z,39.35
2023-05-29T17:27:50.314Z,39.05
2023-05-29T17:34:39.165Z,39.99
2023-05-29T17:36:06.123Z,40.29
2023-05-29T17:38:53.805Z,41.09
2023-05-29T17:40:53.666Z,41.60
2023-05-29T17:42:54.306Z,40.31
2023-05-29T17:44:52.026Z,40.93
2023-05-29T17:50:01.128Z,41.75
2023-05-29T17:51:52.781Z,42.05
2023-05-29T17:55:02.517Z,41.65
2023-05-29T17:56:33.264Z,41.17
2023-05-29T18:00:21.740Z,41.19
2023-05-29T18:06:15.666Z,41.79
2023-05-29T18:08:15.152Z,41.59
2023-05-29T18:15:08.221Z,42.82
2023-05-29T18:17:56.231Z,42.74
2023-05-29T18:20:49.988Z,43.04
2023-05-29T18:22:38.964Z,43.24
2023-05-29T18:24:10.009Z,43.26
2023-05-29T18:26:20.779Z,43.66
2023-05-29T18:27:50.396Z,43.87
2023-05-29T18:30:48.940Z,43.87
2023-05-29T18:31:57.960Z,43.88
2023-05-29T18:33:48.148Z,44.29
2023-05-29T18:39:18.890Z,44.49
2023-05-29T18:41:15.808Z,44.49
2023-05-29T18:45:15.788Z,44.71
2023-05-29T18:50:21.694Z,46.04
2023-05-29T18:52:09.337Z,45.97
2023-05-29T18:54:06.542Z,45.97
2023-05-29T18:56:26.964Z,46.17
2023-05-29T19:01:31.843Z,46.49
2023-05-29T19:03:40.763Z,46.87
2023-05-29T19:05:12.782Z,46.97
2023-05-29T19:06:44.459Z,46.99
2023-05-29T19:13:49.295Z,48.13
2023-05-29T19:16:31.971Z,48.15
2023-05-29T19:18:03.274Z,48.55
2023-05-29T19:24:19.016Z,49.79
2023-05-29T19:34:56.129Z,50.42
2023-05-29T19:36:25.324Z,50.74
2023-05-29T19:38:48.018Z,51.25
2023-05-29T19:43:00.477Z,52.06
2023-05-29T19:47:40.593Z,52.19
2023-05-29T19:49:12.364Z,52.19
2023-05-29T19:50:38.424Z,52.61
2023-05-29T19:51:40.652Z,52.72
2023-05-29T19:52:39.466Z,52.81
2023-05-29T19:56:39.050Z,53.34
2023-05-29T19:57:39.704Z,53.34
2023-05-29T19:58:39.018Z,53.45
2023-05-29T20:07:12.017Z,54.69
2023-05-29T20:10:36.700Z,54.69
2023-05-29T20:12:06.751Z,54.69
2023-05-29T20:14:07.278Z,55.02
2023-05-29T20:20:04.487Z,55.83
2023-05-29T20:32:17.893Z,56.97
2023-05-29T20:34:46.186Z,57.07
2023-05-29T20:36:37.375Z,57.30
2023-05-29T20:40:24.700Z,57.73
2023-05-29T20:43:15.240Z,57.84
2023-05-29T20:49:24.469Z,57.84
2023-05-29T20:55:25.554Z,58.45
2023-05-29T20:59:39.834Z,58.65
2023-05-29T21:01:58.246Z,58.85
2023-05-29T21:06:57.562Z,59.48
2023-05-29T21:08:59.403Z,59.59
2023-05-29T21:13:45.827Z,60.33
2023-05-29T21:20:22.670Z,60.83
2023-05-29T21:25:44.900Z,61.24
2023-05-29T21:27:47.762Z,61.34
2023-05-29T21:29:53.684Z,61.68
2023-05-29T21:31:43.417Z,61.68
2023-05-29T21:36:01.356Z,62.29
2023-05-29T21:39:59.508Z,62.39
2023-05-29T21:45:05.890Z,63.02
2023-05-29T21:49:01.511Z,63.23
2023-05-29T21:51:01.320Z,63.54
2023-05-29T21:55:52.021Z,64.38
2023-05-29T21:57:54.395Z,64.58
2023-05-29T22:01:05.509Z,65.33
2023-05-29T22:03:46.266Z,65.63
2023-05-29T22:05:50.240Z,65.83
2023-05-29T22:19:35.280Z,66.58
2023-05-29T22:21:25.135Z,66.58
2023-05-29T22:25:47.688Z,66.88
2023-05-29T22:27:20.716Z,66.78
2023-05-29T22:32:56.898Z,67.08
2023-05-29T22:34:33.193Z,67.43
2023-05-29T22:36:22.186Z,67.93
2023-05-29T22:42:09.924Z,67.73
2023-05-29T22:45:22.213Z,67.63
2023-05-29T22:59:30.087Z,68.34
2023-05-29T23:04:46.120Z,68.88
2023-05-29T23:08:30.115Z,69.19
2023-05-29T23:11:09.528Z,69.39
2023-05-29T23:15:30.053Z,69.83
2023-05-29T23:17:18.647Z,69.93
2023-05-29T23:20:35.981Z,70.04
2023-05-29T23:21:35.608Z,69.93
2023-05-29T23:22:33.766Z,69.93
2023-05-29T23:26:31.433Z,69.93
2023-05-29T23:29:10.196Z,70.24
2023-05-29T23:31:04.574Z,70.24
2023-05-29T23:34:35.906Z,70.14
2023-05-29T23:41:34.188Z,70.24
2023-05-29T23:46:40.126Z,70.65
2023-05-29T23:49:44.102Z,70.75
2023-05-29T23:52:07.188Z,70.95
2023-05-29T23:56:35.923Z,70.75
2023-05-29T23:58:56.838Z,70.75
